Seden, Denmark
Current Conditions -  °F | °C
As of 8:50 PM on Thursday 27 Nov 2014 (Local Time) from EKSB Reporting Station
Broken Clouds Broken Clouds  
Wind Chill: 33°   Ceiling: 2500
Heat Index: 43°   Visibility: 6mi
Dew Point: 36°   Wind: 25mph
Humidity: 76%   Direction: 120°ESE
Pressure: 30"   Gusts: NA
Location:  55.43°N, 10.44°E
Report Text: EKSB 271950Z 12022KT 9999 BKN025 06/02 Q1016
Loading
Personal Weather Stations






























Interactive Weather Map New forecast layout! Learn more

10-Day Weather Forecast

Advertisements
Track Severe Weather on mobile